createdAt,value
2023-11-01T00:01:43.942Z,100.00
2023-11-01T00:04:11.526Z,100.00
2023-11-01T00:06:38.698Z,100.00
2023-11-01T00:09:05.910Z,100.00
2023-11-01T00:11:35.168Z,100.00
2023-11-01T00:14:03.779Z,100.00
2023-11-01T00:16:31.297Z,100.00
2023-11-01T00:18:59.095Z,100.00
2023-11-01T00:21:26.257Z,100.00
2023-11-01T00:23:53.437Z,100.00
2023-11-01T00:26:24.702Z,100.00
2023-11-01T00:28:53.829Z,100.00
2023-11-01T00:31:21.246Z,100.00
2023-11-01T00:33:48.465Z,100.00
2023-11-01T00:36:15.965Z,100.00
2023-11-01T00:38:43.519Z,100.00
2023-11-01T00:41:10.710Z,100.00
2023-11-01T00:43:38.097Z,100.00
2023-11-01T00:46:06.387Z,100.00
2023-11-01T00:48:33.519Z,100.00
2023-11-01T00:51:00.755Z,100.00
2023-11-01T00:53:28.329Z,100.00
2023-11-01T00:55:55.489Z,100.00
2023-11-01T00:58:23.891Z,100.00
2023-11-01T01:00:51.902Z,100.00
2023-11-01T01:03:19.230Z,100.00
2023-11-01T01:05:46.453Z,100.00
2023-11-01T01:08:13.931Z,100.00
2023-11-01T01:10:44.140Z,100.00
2023-11-01T01:13:11.329Z,100.00
2023-11-01T01:15:39.756Z,100.00
2023-11-01T01:18:07.480Z,100.00
2023-11-01T01:20:35.293Z,100.00
2023-11-01T01:23:04.109Z,100.00
2023-11-01T01:25:31.270Z,100.00
2023-11-01T01:27:58.429Z,100.00
2023-11-01T01:30:25.844Z,100.00
2023-11-01T01:32:53.019Z,100.00
2023-11-01T01:35:20.260Z,100.00
2023-11-01T01:37:47.713Z,100.00
2023-11-01T01:40:14.978Z,100.00
2023-11-01T01:42:42.687Z,100.00
2023-11-01T01:45:10.393Z,100.00
2023-11-01T01:47:37.835Z,100.00
2023-11-01T01:50:05.652Z,100.00
2023-11-01T01:52:33.204Z,100.00
2023-11-01T01:55:00.422Z,100.00
2023-11-01T01:57:29.774Z,100.00
2023-11-01T01:59:58.263Z,100.00
2023-11-01T02:02:25.743Z,100.00
2023-11-01T02:04:53.783Z,100.00
2023-11-01T02:07:21.033Z,100.00
2023-11-01T02:09:50.402Z,100.00
2023-11-01T02:12:18.288Z,100.00
2023-11-01T02:14:46.310Z,100.00
2023-11-01T02:17:13.506Z,100.00
2023-11-01T02:19:41.742Z,100.00
2023-11-01T02:22:09.081Z,100.00
2023-11-01T02:24:36.717Z,100.00
2023-11-01T02:27:05.161Z,100.00
2023-11-01T02:29:32.915Z,100.00
2023-11-01T02:32:04.503Z,100.00
2023-11-01T02:34:49.941Z,100.00
2023-11-01T02:37:17.525Z,100.00
2023-11-01T02:39:44.972Z,100.00
2023-11-01T02:42:12.127Z,100.00
2023-11-01T02:44:40.571Z,100.00
2023-11-01T02:47:07.988Z,100.00
2023-11-01T02:49:35.138Z,100.00
2023-11-01T02:52:02.237Z,100.00
2023-11-01T02:54:29.650Z,100.00
2023-11-01T02:57:00.772Z,100.00
2023-11-01T02:59:28.452Z,100.00
2023-11-01T03:01:57.251Z,100.00
2023-11-01T03:04:24.490Z,100.00
2023-11-01T03:06:51.660Z,100.00
2023-11-01T03:09:19.156Z,100.00
2023-11-01T03:11:46.301Z,100.00
2023-11-01T03:14:13.469Z,100.00
2023-11-01T03:16:42.129Z,100.00
2023-11-01T03:19:11.607Z,100.00
2023-11-01T03:21:41.824Z,100.00
2023-11-01T03:24:12.439Z,100.00
2023-11-01T03:26:41.345Z,100.00
2023-11-01T03:29:08.828Z,100.00
2023-11-01T03:31:36.478Z,100.00
2023-11-01T03:34:03.637Z,100.00
2023-11-01T03:36:31.415Z,100.00
2023-11-01T03:39:00.153Z,100.00
2023-11-01T03:41:27.309Z,100.00
2023-11-01T03:43:55.618Z,100.00
2023-11-01T03:46:23.416Z,100.00
2023-11-01T03:48:50.639Z,100.00
2023-11-01T03:51:19.016Z,100.00
2023-11-01T03:53:46.213Z,100.00
2023-11-01T03:56:14.108Z,100.00
2023-11-01T03:58:41.574Z,100.00
2023-11-01T04:01:09.274Z,100.00
2023-11-01T04:03:36.894Z,100.00
2023-11-01T04:06:04.414Z,100.00
2023-11-01T04:08:31.609Z,100.00
2023-11-01T04:10:59.566Z,100.00
2023-11-01T04:13:26.793Z,100.00
2023-11-01T04:15:55.238Z,100.00
2023-11-01T04:18:22.757Z,100.00
2023-11-01T04:20:49.961Z,100.00
2023-11-01T04:23:17.672Z,100.00
2023-11-01T04:25:45.288Z,100.00
2023-11-01T04:28:12.423Z,100.00
2023-11-01T04:30:40.281Z,100.00
2023-11-01T04:33:08.029Z,100.00
2023-11-01T04:35:36.119Z,100.00
2023-11-01T04:38:03.714Z,100.00
2023-11-01T04:40:33.065Z,100.00
2023-11-01T04:43:00.238Z,100.00
2023-11-01T04:45:29.215Z,100.00
2023-11-01T04:47:56.725Z,100.00
2023-11-01T04:50:24.165Z,100.00
2023-11-01T04:52:51.843Z,100.00
2023-11-01T04:55:19.266Z,100.00
2023-11-01T04:57:46.413Z,100.00
2023-11-01T05:00:17.311Z,100.00
2023-11-01T05:02:48.863Z,100.00
2023-11-01T05:05:16.246Z,100.00
2023-11-01T05:07:43.953Z,100.00
2023-11-01T05:10:14.131Z,100.00
2023-11-01T05:12:42.215Z,100.00
2023-11-01T05:15:10.084Z,100.00
2023-11-01T05:17:37.573Z,100.00
2023-11-01T05:20:05.287Z,100.00
2023-11-01T05:22:33.313Z,100.00
2023-11-01T05:25:01.382Z,100.00
2023-11-01T05:27:28.688Z,100.00
2023-11-01T05:29:56.365Z,100.00
2023-11-01T05:32:23.788Z,100.00
2023-11-01T05:34:50.919Z,100.00
2023-11-01T05:37:20.955Z,100.00
2023-11-01T05:39:48.347Z,100.00
2023-11-01T05:42:16.047Z,100.00
2023-11-01T05:44:43.773Z,100.00
2023-11-01T05:47:18.783Z,100.00
2023-11-01T05:49:46.553Z,100.00
2023-11-01T05:52:23.740Z,100.00
2023-11-01T05:54:51.416Z,100.00
2023-11-01T05:57:18.819Z,100.00
2023-11-01T05:59:48.208Z,100.00
2023-11-01T06:02:15.479Z,100.00
2023-11-01T06:04:42.975Z,100.00
2023-11-01T06:07:10.067Z,100.00
2023-11-01T06:09:37.197Z,100.00
2023-11-01T06:12:06.885Z,100.00
2023-11-01T06:14:34.127Z,100.00
2023-11-01T06:17:03.537Z,100.00
2023-11-01T06:19:33.002Z,100.00
2023-11-01T06:22:00.279Z,100.00
2023-11-01T06:24:27.970Z,100.00
2023-11-01T06:26:58.535Z,100.00
2023-11-01T06:29:28.617Z,100.00
2023-11-01T06:31:56.962Z,100.00
2023-11-01T06:34:24.241Z,100.00
2023-11-01T06:36:55.905Z,100.00
2023-11-01T06:39:25.060Z,100.00
2023-11-01T06:41:54.694Z,100.00
2023-11-01T06:44:21.880Z,100.00
2023-11-01T06:46:51.713Z,100.00
2023-11-01T06:49:18.883Z,100.00
2023-11-01T06:51:47.469Z,100.00
2023-11-01T06:54:15.003Z,100.00
2023-11-01T06:56:46.406Z,100.00
2023-11-01T06:59:14.604Z,100.00
2023-11-01T07:01:44.866Z,100.00
2023-11-01T07:04:15.726Z,100.00
2023-11-01T07:06:43.964Z,100.00
2023-11-01T07:09:12.022Z,100.00
2023-11-01T07:11:41.125Z,100.00
2023-11-01T07:14:10.782Z,100.00
2023-11-01T07:16:42.477Z,100.00
2023-11-01T07:19:10.615Z,100.00
2023-11-01T07:21:42.237Z,99.97
2023-11-01T07:24:09.800Z,99.27
2023-11-01T07:26:38.113Z,97.64
2023-11-01T07:29:12.844Z,98.11
2023-11-01T07:31:41.430Z,97.96
2023-11-01T07:34:09.568Z,97.19
2023-11-01T07:36:44.089Z,97.15
2023-11-01T07:39:11.691Z,100.00
2023-11-01T07:41:41.144Z,96.86
2023-11-01T07:44:09.558Z,97.70
2023-11-01T07:46:38.437Z,100.00
2023-11-01T07:49:05.578Z,95.91
2023-11-01T07:51:36.745Z,95.83
2023-11-01T07:54:04.535Z,96.29
2023-11-01T07:56:34.862Z,97.44
2023-11-01T07:59:02.091Z,95.75
2023-11-01T08:01:37.341Z,96.55
2023-11-01T08:04:05.162Z,99.83
2023-11-01T08:06:32.388Z,99.00
2023-11-01T08:09:00.210Z,94.22
2023-11-01T08:11:29.503Z,93.41
2023-11-01T08:13:57.621Z,99.72
2023-11-01T08:16:28.317Z,95.46
2023-11-01T08:19:00.542Z,96.15
2023-11-01T08:21:27.740Z,94.06
2023-11-01T08:23:54.947Z,93.55
2023-11-01T08:26:24.374Z,97.20
2023-11-01T08:28:51.556Z,92.55
2023-11-01T08:31:20.375Z,88.79
2023-11-01T08:33:47.911Z,91.98
2023-11-01T08:36:15.325Z,94.04
2023-11-01T08:38:43.839Z,92.38
2023-11-01T08:41:15.930Z,93.04
2023-11-01T08:43:45.316Z,93.40
2023-11-01T08:46:13.988Z,91.74
2023-11-01T08:48:41.777Z,87.79
2023-11-01T08:51:11.720Z,86.51
2023-11-01T08:53:40.002Z,90.35
2023-11-01T08:56:09.026Z,88.25
2023-11-01T08:58:36.218Z,88.41
2023-11-01T09:01:07.450Z,86.50
2023-11-01T09:03:35.283Z,90.18
2023-11-01T09:06:04.606Z,87.30
2023-11-01T09:08:32.070Z,87.72
2023-11-01T09:11:02.403Z,87.00
2023-11-01T09:13:29.540Z,87.83
2023-11-01T09:15:58.377Z,83.72
2023-11-01T09:18:26.584Z,83.92
2023-11-01T09:20:53.923Z,87.80
2023-11-01T09:23:21.456Z,83.38
2023-11-01T09:25:49.111Z,87.90
2023-11-01T09:28:16.404Z,84.39
2023-11-01T09:30:47.407Z,84.21
2023-11-01T09:33:16.071Z,90.33
2023-11-01T09:35:43.637Z,85.08
2023-11-01T09:38:10.813Z,85.82
2023-11-01T09:40:38.012Z,88.04
2023-11-01T09:43:08.521Z,86.87
2023-11-01T09:45:37.729Z,85.24
2023-11-01T09:48:07.050Z,86.23
2023-11-01T09:50:36.693Z,89.99
2023-11-01T09:53:04.123Z,86.18
2023-11-01T09:55:31.228Z,90.68
2023-11-01T09:57:59.710Z,87.25
2023-11-01T10:00:27.273Z,88.18
2023-11-01T10:02:55.113Z,85.04
2023-11-01T10:05:22.544Z,82.76
2023-11-01T10:07:49.667Z,82.07
2023-11-01T10:10:18.146Z,82.72
2023-11-01T10:12:46.176Z,84.81
2023-11-01T10:15:24.071Z,86.59
2023-11-01T10:17:55.386Z,85.59
2023-11-01T10:20:23.869Z,84.17
2023-11-01T10:22:51.374Z,85.65
2023-11-01T10:25:20.550Z,84.78
2023-11-01T10:27:53.599Z,84.58
2023-11-01T10:30:28.208Z,78.58
2023-11-01T10:32:59.614Z,80.92
2023-11-01T10:35:27.813Z,85.49
2023-11-01T10:38:00.069Z,79.86
2023-11-01T10:40:30.287Z,80.98
2023-11-01T10:42:59.892Z,80.24
2023-11-01T10:45:27.443Z,73.75
2023-11-01T10:47:55.254Z,76.23
2023-11-01T10:50:23.919Z,73.82
2023-11-01T10:52:51.958Z,72.93
2023-11-01T10:55:41.657Z,72.15
2023-11-01T10:58:15.545Z,69.35
2023-11-01T11:00:49.938Z,72.08
2023-11-01T11:03:32.708Z,72.36
2023-11-01T11:06:16.280Z,68.09
2023-11-01T11:09:24.315Z,66.90
2023-11-01T11:12:21.661Z,68.21
2023-11-01T11:14:52.673Z,65.00
2023-11-01T11:17:21.731Z,65.53
2023-11-01T11:20:12.480Z,67.95
2023-11-01T11:23:04.277Z,64.68
2023-11-01T11:25:38.298Z,65.07
2023-11-01T11:28:20.080Z,71.01
2023-11-01T11:31:17.020Z,69.37
2023-11-01T11:33:48.467Z,67.10
2023-11-01T11:36:18.053Z,66.54
2023-11-01T11:38:50.843Z,72.33
2023-11-01T11:41:23.978Z,71.03
2023-11-01T11:44:07.625Z,66.96
2023-11-01T11:46:43.267Z,68.95
2023-11-01T11:49:29.937Z,66.42
2023-11-01T11:51:59.474Z,72.11
2023-11-01T11:54:37.018Z,71.33
2023-11-01T11:57:11.517Z,68.55
2023-11-01T11:59:40.877Z,69.16
2023-11-01T12:02:19.312Z,71.03
2023-11-01T12:04:48.438Z,70.09
2023-11-01T12:07:22.531Z,67.94
2023-11-01T12:09:54.108Z,67.93
2023-11-01T12:12:22.447Z,67.19
2023-11-01T12:15:02.986Z,70.36
2023-11-01T12:17:32.562Z,69.65
2023-11-01T12:20:00.167Z,66.62
2023-11-01T12:22:27.363Z,66.80
2023-11-01T12:24:57.093Z,67.53
2023-11-01T12:27:32.205Z,68.98
2023-11-01T12:30:01.284Z,67.54
2023-11-01T12:32:34.773Z,71.37
2023-11-01T12:35:06.888Z,73.06
2023-11-01T12:37:36.433Z,67.25
2023-11-01T12:40:20.132Z,66.15
2023-11-01T12:42:51.015Z,68.27
2023-11-01T12:45:21.064Z,65.92
2023-11-01T12:47:53.809Z,64.97
2023-11-01T12:50:31.158Z,66.52
2023-11-01T12:53:00.975Z,65.74
2023-11-01T12:55:29.168Z,64.13
2023-11-01T12:57:58.069Z,63.74
2023-11-01T13:00:26.708Z,66.96
2023-11-01T13:02:54.388Z,67.58
2023-11-01T13:05:23.036Z,67.93
2023-11-01T13:07:52.315Z,67.17
2023-11-01T13:10:19.612Z,64.89
2023-11-01T13:12:49.303Z,63.97
2023-11-01T13:15:17.842Z,67.62
2023-11-01T13:17:45.608Z,64.98
2023-11-01T13:20:14.097Z,64.47
2023-11-01T13:22:41.905Z,65.72
2023-11-01T13:25:09.241Z,67.49
2023-11-01T13:27:37.333Z,67.05
2023-11-01T13:30:07.375Z,66.89
2023-11-01T13:32:35.055Z,65.77
2023-11-01T13:35:02.895Z,67.68
2023-11-01T13:37:33.132Z,66.82
2023-11-01T13:40:00.752Z,64.14
2023-11-01T13:42:28.492Z,67.02
2023-11-01T13:44:57.831Z,73.20
2023-11-01T13:47:26.554Z,64.89
2023-11-01T13:49:56.416Z,64.69
2023-11-01T13:52:24.574Z,60.87
2023-11-01T13:54:52.216Z,63.64
2023-11-01T13:57:22.134Z,68.49
2023-11-01T13:59:49.839Z,65.24
2023-11-01T14:02:17.614Z,65.99
2023-11-01T14:04:45.928Z,66.24
2023-11-01T14:07:13.162Z,66.55
2023-11-01T14:09:40.747Z,65.90
2023-11-01T14:12:09.415Z,65.50
2023-11-01T14:14:38.186Z,64.13
2023-11-01T14:17:06.268Z,66.07
2023-11-01T14:19:34.541Z,64.85
2023-11-01T14:22:01.737Z,63.82
2023-11-01T14:24:29.483Z,64.49
2023-11-01T14:26:58.237Z,65.07
2023-11-01T14:29:26.959Z,64.93
2023-11-01T14:31:55.199Z,66.26
2023-11-01T14:34:22.800Z,66.96
2023-11-01T14:36:55.970Z,68.74
2023-11-01T14:39:24.070Z,71.28
2023-11-01T14:41:51.694Z,72.71
2023-11-01T14:44:19.341Z,71.74
2023-11-01T14:46:47.349Z,75.12
2023-11-01T14:49:17.357Z,77.24
2023-11-01T14:51:45.309Z,78.08
2023-11-01T14:54:16.273Z,79.93
2023-11-01T14:56:45.339Z,81.13
2023-11-01T14:59:14.117Z,83.38
2023-11-01T15:01:51.957Z,84.23
2023-11-01T15:04:20.042Z,84.97
2023-11-01T15:06:50.609Z,85.56
2023-11-01T15:09:21.033Z,87.26
2023-11-01T15:11:50.020Z,88.36
2023-11-01T15:14:17.592Z,89.97
2023-11-01T15:16:45.236Z,90.42
2023-11-01T15:19:12.984Z,91.14
2023-11-01T15:21:45.931Z,91.83
2023-11-01T15:24:14.935Z,91.75
2023-11-01T15:26:46.537Z,92.43
2023-11-01T15:29:14.097Z,93.04
2023-11-01T15:31:42.112Z,93.81
2023-11-01T15:34:09.631Z,93.86
2023-11-01T15:36:38.014Z,94.52
2023-11-01T15:39:05.788Z,94.93
2023-11-01T15:41:33.036Z,94.46
2023-11-01T15:44:00.620Z,95.00
2023-11-01T15:46:31.352Z,95.87
2023-11-01T15:48:58.613Z,95.49
2023-11-01T15:51:27.609Z,95.46
2023-11-01T15:53:55.659Z,95.24
2023-11-01T15:56:22.921Z,95.80
2023-11-01T15:58:51.155Z,96.23
2023-11-01T16:01:20.854Z,96.76
2023-11-01T16:03:49.294Z,96.55
2023-11-01T16:06:19.278Z,96.65
2023-11-01T16:08:49.209Z,96.83
2023-11-01T16:11:24.611Z,96.82
2023-11-01T16:13:56.285Z,97.29
2023-11-01T16:16:23.980Z,97.30
2023-11-01T16:18:51.659Z,98.07
2023-11-01T16:21:18.839Z,98.61
2023-11-01T16:23:46.798Z,98.79
2023-11-01T16:26:16.208Z,99.20
2023-11-01T16:28:43.534Z,98.60
2023-11-01T16:31:14.182Z,98.45
2023-11-01T16:33:44.716Z,98.76
2023-11-01T16:36:13.165Z,98.51
2023-11-01T16:38:40.424Z,98.38
2023-11-01T16:41:09.722Z,98.57
2023-11-01T16:43:42.624Z,98.76
2023-11-01T16:46:10.309Z,98.47
2023-11-01T16:48:43.227Z,98.23
2023-11-01T16:51:12.356Z,97.96
2023-11-01T16:53:41.070Z,97.81
2023-11-01T16:56:08.857Z,97.47
2023-11-01T16:58:37.265Z,97.32
2023-11-01T17:01:12.981Z,97.78
2023-11-01T17:03:42.918Z,98.34
2023-11-01T17:06:11.562Z,97.21
2023-11-01T17:08:38.812Z,97.52
2023-11-01T17:11:05.958Z,97.97
2023-11-01T17:13:36.512Z,97.80
2023-11-01T17:16:04.101Z,97.85
2023-11-01T17:18:31.476Z,97.92
2023-11-01T17:21:01.348Z,97.86
2023-11-01T17:23:28.626Z,98.12
2023-11-01T17:26:00.380Z,98.37
2023-11-01T17:28:35.865Z,98.36
2023-11-01T17:31:11.397Z,98.23
2023-11-01T17:33:41.212Z,98.87
2023-11-01T17:36:21.172Z,98.75
2023-11-01T17:38:51.615Z,98.99
2023-11-01T17:41:41.713Z,99.18
2023-11-01T17:44:12.458Z,99.81
2023-11-01T17:46:46.975Z,99.77
2023-11-01T17:49:45.399Z,100.00
2023-11-01T17:52:27.029Z,100.00
2023-11-01T17:54:57.627Z,100.00
2023-11-01T17:57:25.023Z,100.00
2023-11-01T17:59:58.004Z,100.00
2023-11-01T18:02:34.041Z,100.00
2023-11-01T18:05:01.732Z,100.00
2023-11-01T18:07:29.015Z,100.00
2023-11-01T18:09:58.225Z,100.00
2023-11-01T18:12:30.482Z,100.00
2023-11-01T18:14:58.185Z,100.00
2023-11-01T18:17:27.685Z,100.00
2023-11-01T18:19:56.541Z,100.00
2023-11-01T18:22:42.480Z,100.00
2023-11-01T18:25:45.757Z,100.00
2023-11-01T18:28:12.883Z,100.00
2023-11-01T18:30:45.672Z,100.00
2023-11-01T18:33:19.997Z,100.00
2023-11-01T18:35:47.487Z,100.00
2023-11-01T18:38:47.880Z,100.00
2023-11-01T18:41:15.430Z,100.00
2023-11-01T18:43:43.690Z,100.00
2023-11-01T18:46:13.376Z,100.00
2023-11-01T18:48:47.359Z,100.00
2023-11-01T18:51:42.005Z,100.00
2023-11-01T18:54:17.415Z,100.00
2023-11-01T18:56:45.065Z,100.00
2023-11-01T18:59:13.497Z,100.00
2023-11-01T19:01:42.154Z,100.00
2023-11-01T19:04:14.411Z,100.00
2023-11-01T19:06:44.488Z,100.00
2023-11-01T19:09:15.796Z,100.00
2023-11-01T19:11:43.980Z,100.00
2023-11-01T19:14:14.809Z,100.00
2023-11-01T19:16:43.913Z,100.00
2023-11-01T19:19:20.155Z,100.00
2023-11-01T19:21:50.298Z,100.00
2023-11-01T19:24:29.326Z,100.00
2023-11-01T19:27:09.509Z,100.00
2023-11-01T19:29:43.382Z,100.00
2023-11-01T19:32:11.210Z,100.00
2023-11-01T19:34:41.104Z,100.00
2023-11-01T19:37:09.105Z,100.00
2023-11-01T19:39:42.037Z,100.00
2023-11-01T19:42:09.992Z,100.00
2023-11-01T19:44:40.561Z,100.00
2023-11-01T19:47:11.033Z,100.00
2023-11-01T19:49:39.458Z,100.00
2023-11-01T19:52:10.227Z,100.00
2023-11-01T19:54:39.214Z,100.00
2023-11-01T19:57:09.900Z,100.00
2023-11-01T19:59:41.584Z,100.00
2023-11-01T20:02:10.749Z,100.00
2023-11-01T20:04:41.816Z,100.00
2023-11-01T20:07:14.907Z,100.00
2023-11-01T20:09:43.837Z,100.00
2023-11-01T20:12:14.485Z,100.00
2023-11-01T20:14:44.656Z,100.00
2023-11-01T20:17:17.154Z,100.00
2023-11-01T20:19:44.848Z,100.00
2023-11-01T20:22:14.041Z,100.00
2023-11-01T20:24:43.303Z,100.00
2023-11-01T20:27:11.053Z,100.00
2023-11-01T20:29:42.125Z,100.00
2023-11-01T20:32:09.786Z,100.00
2023-11-01T20:34:37.555Z,100.00
2023-11-01T20:37:11.679Z,100.00
2023-11-01T20:39:56.717Z,100.00
2023-11-01T20:42:27.751Z,100.00
2023-11-01T20:44:59.287Z,100.00
2023-11-01T20:47:27.255Z,100.00
2023-11-01T20:50:03.256Z,100.00
2023-11-01T20:52:32.119Z,100.00
2023-11-01T20:55:02.502Z,100.00
2023-11-01T20:57:33.485Z,100.00
2023-11-01T21:00:01.805Z,100.00
2023-11-01T21:02:30.230Z,100.00
2023-11-01T21:04:58.872Z,100.00
2023-11-01T21:07:30.914Z,100.00
2023-11-01T21:10:04.241Z,100.00
2023-11-01T21:12:32.641Z,100.00
2023-11-01T21:15:08.832Z,100.00
2023-11-01T21:17:37.522Z,100.00
2023-11-01T21:20:10.698Z,100.00
2023-11-01T21:22:50.004Z,100.00
2023-11-01T21:25:18.481Z,100.00
2023-11-01T21:27:47.549Z,100.00
2023-11-01T21:30:16.273Z,100.00
2023-11-01T21:32:44.119Z,100.00
2023-11-01T21:35:12.381Z,100.00
2023-11-01T21:37:40.599Z,100.00
2023-11-01T21:40:08.643Z,100.00
2023-11-01T21:42:37.103Z,100.00
2023-11-01T21:45:20.207Z,100.00
2023-11-01T21:48:07.877Z,100.00
2023-11-01T21:50:50.237Z,100.00
2023-11-01T21:53:18.364Z,100.00
2023-11-01T21:55:56.393Z,100.00
2023-11-01T21:58:26.547Z,100.00
2023-11-01T22:01:07.306Z,100.00
2023-11-01T22:03:42.721Z,100.00
2023-11-01T22:06:19.610Z,100.00
2023-11-01T22:09:12.466Z,100.00
2023-11-01T22:11:44.036Z,100.00
2023-11-01T22:14:31.235Z,100.00
2023-11-01T22:17:03.168Z,100.00
2023-11-01T22:19:42.349Z,100.00
2023-11-01T22:22:34.734Z,100.00
2023-11-01T22:25:08.332Z,100.00
2023-11-01T22:27:39.622Z,100.00
2023-11-01T22:30:07.800Z,100.00
2023-11-01T22:32:34.960Z,100.00
2023-11-01T22:35:02.148Z,100.00
2023-11-01T22:37:29.723Z,100.00
2023-11-01T22:39:57.304Z,100.00
2023-11-01T22:42:32.039Z,100.00
2023-11-01T22:45:02.398Z,100.00
2023-11-01T22:47:31.193Z,100.00
2023-11-01T22:49:58.908Z,100.00
2023-11-01T22:52:27.292Z,100.00
2023-11-01T22:54:55.811Z,100.00
2023-11-01T22:57:22.986Z,100.00
2023-11-01T22:59:51.593Z,100.00
2023-11-01T23:02:18.785Z,100.00
2023-11-01T23:04:45.909Z,100.00
2023-11-01T23:07:15.504Z,100.00
2023-11-01T23:09:42.659Z,100.00
2023-11-01T23:12:12.388Z,100.00
2023-11-01T23:14:39.891Z,100.00
2023-11-01T23:17:11.610Z,100.00
2023-11-01T23:19:39.235Z,100.00
2023-11-01T23:22:10.295Z,100.00
2023-11-01T23:24:39.402Z,100.00
2023-11-01T23:27:07.015Z,100.00
2023-11-01T23:29:37.414Z,100.00
2023-11-01T23:32:11.853Z,100.00
2023-11-01T23:34:49.407Z,100.00
2023-11-01T23:37:38.076Z,100.00
2023-11-01T23:40:10.046Z,100.00
2023-11-01T23:42:38.219Z,100.00
2023-11-01T23:45:39.552Z,100.00
2023-11-01T23:48:07.547Z,100.00
2023-11-01T23:50:36.995Z,100.00
2023-11-01T23:53:05.735Z,100.00
2023-11-01T23:55:33.484Z,100.00
2023-11-01T23:58:01.579Z,100.00
